sensor_id;sensor_type;location;lat;lon;timestamp;pressure;altitude;pressure_sealevel;temperature;humidity
44001;BME280;29660;42.892;24.710;2023-06-14T00:00:33;96216.91;;;12.63;100.00
44001;BME280;29660;42.892;24.710;2023-06-14T00:05:56;96186.69;;;12.53;100.00
44001;BME280;29660;42.892;24.710;2023-06-14T00:11:18;96257.56;;;13.03;100.00
44001;BME280;29660;42.892;24.710;2023-06-14T00:16:41;96574.69;;;15.16;100.00
44001;BME280;29660;42.892;24.710;2023-06-14T00:22:04;96742.59;;;16.11;100.00
44001;BME280;29660;42.892;24.710;2023-06-14T00:27:27;96247.81;;;12.98;100.00
44001;BME280;29660;42.892;24.710;2023-06-14T00:32:49;96716.38;;;16.08;100.00
44001;BME280;29660;42.892;24.710;2023-06-14T00:38:12;96693.41;;;15.89;100.00
44001;BME280;29660;42.892;24.710;2023-06-14T00:43:35;95871.19;;;10.48;100.00
44001;BME280;29660;42.892;24.710;2023-06-14T00:48:58;96646.72;;;15.43;100.00
44001;BME280;29660;42.892;24.710;2023-06-14T00:54:22;96171.00;;;12.43;100.00
44001;BME280;29660;42.892;24.710;2023-06-14T00:59:46;96174.50;;;12.35;100.00
44001;BME280;29660;42.892;24.710;2023-06-14T01:05:09;96177.91;;;12.53;100.00
44001;BME280;29660;42.892;24.710;2023-06-14T01:10:43;96194.41;;;12.55;100.00
44001;BME280;29660;42.892;24.710;2023-06-14T01:16:11;96604.06;;;15.21;100.00
44001;BME280;29660;42.892;24.710;2023-06-14T01:21:34;96652.84;;;15.53;100.00
44001;BME280;29660;42.892;24.710;2023-06-14T01:27:03;96522.72;;;14.70;100.00
44001;BME280;29660;42.892;24.710;2023-06-14T01:32:26;96283.53;;;13.02;100.00
44001;BME280;29660;42.892;24.710;2023-06-14T01:37:51;96671.19;;;15.51;100.00
44001;BME280;29660;42.892;24.710;2023-06-14T01:43:15;96352.28;;;13.37;100.00
44001;BME280;29660;42.892;24.710;2023-06-14T01:48:38;96629.00;;;14.62;100.00
44001;BME280;29660;42.892;24.710;2023-06-14T01:54:00;96433.47;;;13.84;100.00
44001;BME280;29660;42.892;24.710;2023-06-14T01:59:22;96560.16;;;14.58;100.00
44001;BME280;29660;42.892;24.710;2023-06-14T02:04:44;96689.78;;;15.35;100.00
44001;BME280;29660;42.892;24.710;2023-06-14T02:10:09;96686.66;;;15.33;100.00
44001;BME280;29660;42.892;24.710;2023-06-14T02:15:31;96365.38;;;13.12;100.00
44001;BME280;29660;42.892;24.710;2023-06-14T02:20:56;96155.97;;;11.78;100.00
44001;BME280;29660;42.892;24.710;2023-06-14T02:26:18;96138.66;;;11.67;100.00
44001;BME280;29660;42.892;24.710;2023-06-14T02:31:40;96191.34;;;12.10;100.00
44001;BME280;29660;42.892;24.710;2023-06-14T02:37:03;96710.13;;;15.44;100.00
44001;BME280;29660;42.892;24.710;2023-06-14T02:42:25;96150.34;;;11.88;100.00
44001;BME280;29660;42.892;24.710;2023-06-14T02:47:47;96445.00;;;13.76;100.00
44001;BME280;29660;42.892;24.710;2023-06-14T02:53:10;96583.50;;;14.66;100.00
44001;BME280;29660;42.892;24.710;2023-06-14T02:58:33;96695.16;;;15.35;100.00
44001;BME280;29660;42.892;24.710;2023-06-14T03:03:56;96727.78;;;15.54;100.00
44001;BME280;29660;42.892;24.710;2023-06-14T03:09:18;96750.69;;;15.60;100.00
44001;BME280;29660;42.892;24.710;2023-06-14T03:14:41;96701.13;;;15.11;100.00
44001;BME280;29660;42.892;24.710;2023-06-14T03:20:04;96441.78;;;13.44;100.00
44001;BME280;29660;42.892;24.710;2023-06-14T03:25:27;96383.34;;;13.03;100.00
44001;BME280;29660;42.892;24.710;2023-06-14T03:30:51;96736.44;;;15.30;100.00
44001;BME280;29660;42.892;24.710;2023-06-14T03:36:13;96352.81;;;12.95;100.00
44001;BME280;29660;42.892;24.710;2023-06-14T03:41:36;96535.31;;;13.84;100.00
44001;BME280;29660;42.892;24.710;2023-06-14T03:46:59;96144.97;;;11.53;100.00
44001;BME280;29660;42.892;24.710;2023-06-14T03:52:22;96721.19;;;15.05;100.00
44001;BME280;29660;42.892;24.710;2023-06-14T03:57:45;96652.47;;;14.74;100.00
44001;BME280;29660;42.892;24.710;2023-06-14T04:03:11;96339.63;;;12.73;100.00
44001;BME280;29660;42.892;24.710;2023-06-14T04:08:35;96246.34;;;12.02;100.00
44001;BME280;29660;42.892;24.710;2023-06-14T04:13:58;96326.41;;;12.68;100.00
44001;BME280;29660;42.892;24.710;2023-06-14T04:19:21;96683.19;;;14.94;100.00
44001;BME280;29660;42.892;24.710;2023-06-14T04:24:43;96600.63;;;14.35;100.00
44001;BME280;29660;42.892;24.710;2023-06-14T04:30:09;96374.56;;;12.85;100.00
44001;BME280;29660;42.892;24.710;2023-06-14T04:35:37;96824.66;;;15.66;100.00
44001;BME280;29660;42.892;24.710;2023-06-14T04:40:59;96878.13;;;15.68;100.00
44001;BME280;29660;42.892;24.710;2023-06-14T04:46:24;96264.78;;;12.03;100.00
44001;BME280;29660;42.892;24.710;2023-06-14T04:51:47;96827.16;;;15.80;100.00
44001;BME280;29660;42.892;24.710;2023-06-14T04:57:13;96878.50;;;15.87;100.00
44001;BME280;29660;42.892;24.710;2023-06-14T05:02:38;96822.41;;;15.77;100.00
44001;BME280;29660;42.892;24.710;2023-06-14T05:08:00;96816.28;;;15.68;100.00
44001;BME280;29660;42.892;24.710;2023-06-14T05:13:23;96779.19;;;15.44;100.00
44001;BME280;29660;42.892;24.710;2023-06-14T05:18:46;96759.31;;;15.36;100.00
44001;BME280;29660;42.892;24.710;2023-06-14T05:24:09;96820.38;;;15.74;100.00
44001;BME280;29660;42.892;24.710;2023-06-14T05:29:31;96844.56;;;16.04;100.00
44001;BME280;29660;42.892;24.710;2023-06-14T05:34:53;96339.78;;;12.76;100.00
44001;BME280;29660;42.892;24.710;2023-06-14T05:40:15;96856.78;;;16.22;100.00
44001;BME280;29660;42.892;24.710;2023-06-14T05:45:39;96323.38;;;12.95;100.00
44001;BME280;29660;42.892;24.710;2023-06-14T05:51:01;96784.72;;;16.07;100.00
44001;BME280;29660;42.892;24.710;2023-06-14T05:56:23;96878.59;;;16.29;100.00
44001;BME280;29660;42.892;24.710;2023-06-14T06:01:45;96484.47;;;14.43;100.00
44001;BME280;29660;42.892;24.710;2023-06-14T06:07:08;96754.41;;;16.39;100.00
44001;BME280;29660;42.892;24.710;2023-06-14T06:12:30;96369.38;;;14.00;100.00
44001;BME280;29660;42.892;24.710;2023-06-14T06:17:53;96695.84;;;16.36;100.00
44001;BME280;29660;42.892;24.710;2023-06-14T06:23:17;96798.00;;;17.20;100.00
44001;BME280;29660;42.892;24.710;2023-06-14T06:28:39;96729.91;;;16.74;100.00
44001;BME280;29660;42.892;24.710;2023-06-14T06:34:02;96302.84;;;14.14;100.00
44001;BME280;29660;42.892;24.710;2023-06-14T06:39:24;96414.88;;;15.10;100.00
44001;BME280;29660;42.892;24.710;2023-06-14T06:44:47;96350.41;;;15.10;100.00
44001;BME280;29660;42.892;24.710;2023-06-14T06:50:10;96395.81;;;15.93;100.00
44001;BME280;29660;42.892;24.710;2023-06-14T06:55:32;96801.56;;;19.03;100.00
44001;BME280;29660;42.892;24.710;2023-06-14T07:00:54;96855.84;;;19.85;100.00
44001;BME280;29660;42.892;24.710;2023-06-14T07:06:16;96909.16;;;20.17;100.00
44001;BME280;29660;42.892;24.710;2023-06-14T07:11:41;96858.59;;;20.05;100.00
44001;BME280;29660;42.892;24.710;2023-06-14T07:17:03;96401.22;;;16.58;100.00
44001;BME280;29660;42.892;24.710;2023-06-14T07:22:26;96411.19;;;16.70;100.00
44001;BME280;29660;42.892;24.710;2023-06-14T07:27:50;96305.72;;;16.00;100.00
44001;BME280;29660;42.892;24.710;2023-06-14T07:33:12;96874.28;;;19.52;100.00
44001;BME280;29660;42.892;24.710;2023-06-14T07:38:35;96837.19;;;19.52;100.00
44001;BME280;29660;42.892;24.710;2023-06-14T07:43:58;96663.75;;;18.15;100.00
44001;BME280;29660;42.892;24.710;2023-06-14T07:49:20;96869.06;;;19.59;100.00
44001;BME280;29660;42.892;24.710;2023-06-14T07:54:42;96375.75;;;16.28;100.00
44001;BME280;29660;42.892;24.710;2023-06-14T08:00:05;96810.50;;;19.35;100.00
44001;BME280;29660;42.892;24.710;2023-06-14T08:05:35;96875.81;;;19.97;100.00
44001;BME280;29660;42.892;24.710;2023-06-14T08:10:57;96876.41;;;20.06;100.00
44001;BME280;29660;42.892;24.710;2023-06-14T08:16:19;96875.81;;;20.13;100.00
44001;BME280;29660;42.892;24.710;2023-06-14T08:21:42;96869.97;;;19.95;100.00
44001;BME280;29660;42.892;24.710;2023-06-14T08:27:06;96810.63;;;19.70;100.00
44001;BME280;29660;42.892;24.710;2023-06-14T08:32:28;96834.78;;;19.79;100.00
44001;BME280;29660;42.892;24.710;2023-06-14T08:37:51;96307.44;;;16.32;100.00
44001;BME280;29660;42.892;24.710;2023-06-14T08:43:13;96849.25;;;20.02;100.00
44001;BME280;29660;42.892;24.710;2023-06-14T08:48:35;96609.00;;;18.74;100.00
44001;BME280;29660;42.892;24.710;2023-06-14T08:53:57;96732.44;;;19.65;100.00
44001;BME280;29660;42.892;24.710;2023-06-14T08:59:20;96630.34;;;18.95;100.00
44001;BME280;29660;42.892;24.710;2023-06-14T09:04:43;96852.91;;;20.80;100.00
44001;BME280;29660;42.892;24.710;2023-06-14T09:10:13;96891.41;;;21.28;100.00
44001;BME280;29660;42.892;24.710;2023-06-14T09:15:35;96831.38;;;20.68;100.00
44001;BME280;29660;42.892;24.710;2023-06-14T09:20:58;96431.03;;;18.37;100.00
44001;BME280;29660;42.892;24.710;2023-06-14T09:26:21;96423.56;;;18.15;100.00
44001;BME280;29660;42.892;24.710;2023-06-14T09:31:47;96457.63;;;18.55;100.00
44001;BME280;29660;42.892;24.710;2023-06-14T09:37:10;96513.03;;;19.16;100.00
44001;BME280;29660;42.892;24.710;2023-06-14T09:42:32;96516.09;;;19.33;100.00
44001;BME280;29660;42.892;24.710;2023-06-14T09:47:58;96751.78;;;20.76;100.00
44001;BME280;29660;42.892;24.710;2023-06-14T09:53:23;96420.44;;;18.64;100.00
44001;BME280;29660;42.892;24.710;2023-06-14T09:58:46;96867.13;;;21.78;100.00
44001;BME280;29660;42.892;24.710;2023-06-14T10:04:21;96884.00;;;21.91;100.00
44001;BME280;29660;42.892;24.710;2023-06-14T10:09:44;96747.38;;;21.33;100.00
44001;BME280;29660;42.892;24.710;2023-06-14T10:15:25;96790.84;;;21.87;100.00
44001;BME280;29660;42.892;24.710;2023-06-14T10:21:13;96918.91;;;22.65;100.00
44001;BME280;29660;42.892;24.710;2023-06-14T10:26:35;96853.75;;;23.02;95.06
44001;BME280;29660;42.892;24.710;2023-06-14T10:31:59;96498.72;;;21.45;91.02
44001;BME280;29660;42.892;24.710;2023-06-14T10:37:21;96833.53;;;24.33;82.96
44001;BME280;29660;42.892;24.710;2023-06-14T10:42:51;96838.88;;;24.18;83.25
44001;BME280;29660;42.892;24.710;2023-06-14T10:48:29;96383.38;;;20.34;86.21
44001;BME280;29660;42.892;24.710;2023-06-14T10:53:51;96331.91;;;20.34;87.44
44001;BME280;29660;42.892;24.710;2023-06-14T10:59:14;96828.69;;;23.60;83.72
44001;BME280;29660;42.892;24.710;2023-06-14T11:04:50;96738.47;;;22.76;87.05
44001;BME280;29660;42.892;24.710;2023-06-14T11:15:47;96035.50;;;18.24;84.99
44001;BME280;29660;42.892;24.710;2023-06-14T11:21:11;96457.25;;;20.84;87.15
44001;BME280;29660;42.892;24.710;2023-06-14T11:26:33;96842.41;;;23.34;86.81
44001;BME280;29660;42.892;24.710;2023-06-14T11:31:57;96415.03;;;20.53;83.29
44001;BME280;29660;42.892;24.710;2023-06-14T11:37:19;96392.53;;;20.49;81.37
44001;BME280;29660;42.892;24.710;2023-06-14T11:42:41;96720.59;;;22.75;84.62
44001;BME280;29660;42.892;24.710;2023-06-14T11:48:04;96383.25;;;20.50;86.58
44001;BME280;29660;42.892;24.710;2023-06-14T11:53:26;96086.38;;;18.68;88.96
44001;BME280;29660;42.892;24.710;2023-06-14T11:58:49;96811.13;;;23.58;89.43
44001;BME280;29660;42.892;24.710;2023-06-14T12:04:11;96814.94;;;23.90;88.04
44001;BME280;29660;42.892;24.710;2023-06-14T12:09:34;96851.19;;;23.98;87.11
44001;BME280;29660;42.892;24.710;2023-06-14T12:14:56;96780.16;;;23.69;89.39
44001;BME280;29660;42.892;24.710;2023-06-14T12:20:18;96454.66;;;21.55;85.89
44001;BME280;29660;42.892;24.710;2023-06-14T12:25:45;96806.59;;;24.28;84.96
44001;BME280;29660;42.892;24.710;2023-06-14T12:31:08;96332.78;;;21.36;82.79
44001;BME280;29660;42.892;24.710;2023-06-14T12:36:30;96355.69;;;21.83;80.70
44001;BME280;29660;42.892;24.710;2023-06-14T12:41:53;96324.28;;;21.89;75.64
44001;BME280;29660;42.892;24.710;2023-06-14T12:47:16;96336.88;;;22.11;75.84
44001;BME280;29660;42.892;24.710;2023-06-14T12:52:38;96690.19;;;24.24;78.04
44001;BME280;29660;42.892;24.710;2023-06-14T12:58:00;96650.53;;;23.54;80.97
44001;BME280;29660;42.892;24.710;2023-06-14T13:03:23;96764.16;;;24.23;81.01
44001;BME280;29660;42.892;24.710;2023-06-14T13:08:45;96695.91;;;23.94;84.93
44001;BME280;29660;42.892;24.710;2023-06-14T13:14:07;96303.97;;;21.68;82.34
44001;BME280;29660;42.892;24.710;2023-06-14T13:19:34;96654.25;;;23.32;86.57
44001;BME280;29660;42.892;24.710;2023-06-14T13:24:57;96386.59;;;22.15;85.06
44001;BME280;29660;42.892;24.710;2023-06-14T13:30:19;96314.59;;;21.88;82.99
44001;BME280;29660;42.892;24.710;2023-06-14T13:35:41;96312.53;;;22.22;83.07
44001;BME280;29660;42.892;24.710;2023-06-14T13:41:03;96624.41;;;24.26;78.62
44001;BME280;29660;42.892;24.710;2023-06-14T13:46:26;96223.63;;;21.53;80.46
44001;BME280;29660;42.892;24.710;2023-06-14T13:51:48;96622.31;;;23.84;82.70
44001;BME280;29660;42.892;24.710;2023-06-14T13:57:10;96660.09;;;23.92;84.12
44001;BME280;29660;42.892;24.710;2023-06-14T14:02:34;96316.41;;;21.28;84.46
44001;BME280;29660;42.892;24.710;2023-06-14T14:07:56;96251.16;;;21.11;81.23
44001;BME280;29660;42.892;24.710;2023-06-14T14:13:19;96721.84;;;24.51;82.81
44001;BME280;29660;42.892;24.710;2023-06-14T14:18:41;96692.22;;;24.38;79.85
44001;BME280;29660;42.892;24.710;2023-06-14T14:24:03;96285.00;;;21.72;80.29
44001;BME280;29660;42.892;24.710;2023-06-14T14:29:26;95914.25;;;19.25;84.43
44001;BME280;29660;42.892;24.710;2023-06-14T14:34:51;96681.19;;;24.10;80.99
44001;BME280;29660;42.892;24.710;2023-06-14T14:40:13;96269.13;;;21.29;84.74
44001;BME280;29660;42.892;24.710;2023-06-14T14:45:36;96751.25;;;24.09;84.71
44001;BME280;29660;42.892;24.710;2023-06-14T14:50:58;96160.69;;;20.48;87.17
44001;BME280;29660;42.892;24.710;2023-06-14T14:56:22;96623.88;;;23.22;88.78
44001;BME280;29660;42.892;24.710;2023-06-14T15:01:44;96682.22;;;23.84;87.09
44001;BME280;29660;42.892;24.710;2023-06-14T15:07:07;96580.78;;;23.28;85.78
44001;BME280;29660;42.892;24.710;2023-06-14T15:12:30;96606.84;;;23.33;88.54
44001;BME280;29660;42.892;24.710;2023-06-14T15:17:52;96700.06;;;23.70;88.05
44001;BME280;29660;42.892;24.710;2023-06-14T15:23:14;96285.22;;;20.74;91.20
44001;BME280;29660;42.892;24.710;2023-06-14T15:28:41;96736.84;;;23.53;91.89
44001;BME280;29660;42.892;24.710;2023-06-14T15:55:07;96343.91;;;20.33;94.13
44001;BME280;29660;42.892;24.710;2023-06-14T16:00:29;96763.91;;;22.61;97.34
44001;BME280;29660;42.892;24.710;2023-06-14T16:05:51;96402.94;;;19.97;97.99
44001;BME280;29660;42.892;24.710;2023-06-14T16:11:13;96345.69;;;19.49;98.20
44001;BME280;29660;42.892;24.710;2023-06-14T16:16:36;96013.50;;;17.22;99.36
44001;BME280;29660;42.892;24.710;2023-06-14T16:21:58;96745.84;;;21.86;100.00
